Time;durP1;ratioP1;P1;durP2;ratioP2;P2;SDS_P1;SDS_P2;PMS_P1;PMS_P2;Temp;Humidity;BMP_temperature;BMP_pressure;BME280_temperature;BME280_humidity;BME280_pressure;Samples;Min_cycle;Max_cycle;Signal;HPM_P1;HPM_P2
2021/04/23 00:00:42;;;;;;;7.05;5.63;;;;;;;12.61;60.09;93993.13;5048091;28;20032;-86
2021/04/23 00:03:39;;;;;;;8.73;5.15;;;;;;;12.46;60.54;93975.66;5050356;28;20040;-84
2021/04/23 00:06:07;;;;;;;7.80;5.00;;;;;;;12.32;60.73;93980.94;5054498;28;20413;-86
2021/04/23 00:08:33;;;;;;;6.97;5.30;;;;;;;12.44;60.45;93983.91;5046256;28;20078;-81
2021/04/23 00:11:00;;;;;;;9.85;4.97;;;;;;;12.49;60.39;93994.41;5051745;28;20036;-85
2021/04/23 00:13:25;;;;;;;6.65;5.32;;;;;;;12.47;60.02;93991.25;5050395;28;20437;-85
2021/04/23 00:15:52;;;;;;;12.13;5.65;;;;;;;12.31;60.36;93979.41;5048695;28;20033;-84
2021/04/23 00:18:17;;;;;;;7.15;5.22;;;;;;;12.39;60.37;93989.31;5042104;28;20056;-85
2021/04/23 00:20:44;;;;;;;6.95;5.25;;;;;;;12.48;59.96;93995.47;5052284;28;20024;-84
2021/04/23 00:23:10;;;;;;;8.30;4.97;;;;;;;12.71;59.37;93995.56;5051576;28;20369;-85
2021/04/23 00:25:36;;;;;;;6.07;4.78;;;;;;;12.60;59.61;93992.34;5048258;28;20075;-86
2021/04/23 00:28:07;;;;;;;6.15;5.25;;;;;;;12.55;59.70;93984.50;5047943;28;20103;-85
2021/04/23 00:30:37;;;;;;;9.77;5.63;;;;;;;12.66;59.33;93980.53;5055689;28;20494;-86
2021/04/23 00:33:04;;;;;;;7.72;5.35;;;;;;;12.61;59.43;93985.19;5047129;28;20052;-85
2021/04/23 00:35:34;;;;;;;9.65;5.20;;;;;;;12.58;59.69;93984.69;5052584;28;20717;-84
2021/04/23 00:38:03;;;;;;;7.32;5.40;;;;;;;12.44;60.49;93993.72;5050237;28;20037;-85
2021/04/23 00:40:33;;;;;;;7.28;4.93;;;;;;;12.44;60.44;93983.91;5047564;28;20037;-86
2021/04/23 00:42:59;;;;;;;9.93;5.32;;;;;;;12.47;60.39;93983.31;5053638;28;20076;-85
2021/04/23 00:45:27;;;;;;;6.18;5.50;;;;;;;12.40;60.75;93977.63;5046365;28;20119;-85
2021/04/23 00:47:58;;;;;;;8.57;6.20;;;;;;;12.57;60.01;93972.50;5048183;28;20029;-85
2021/04/23 00:50:40;;;;;;;11.05;6.28;;;;;;;12.51;60.52;93996.78;5054194;28;20397;-89
2021/04/23 00:53:08;;;;;;;7.13;5.88;;;;;;;12.45;61.23;94001.38;5050053;28;20037;-86
2021/04/23 00:55:35;;;;;;;7.05;5.53;;;;;;;12.55;60.98;93985.28;5049710;28;20041;-86
2021/04/23 00:58:01;;;;;;;8.05;5.38;;;;;;;12.44;61.38;93978.59;5049513;28;20403;-84
2021/04/23 01:00:27;;;;;;;6.07;5.30;;;;;;;12.26;62.44;93982.13;5049142;28;20049;-86
2021/04/23 01:02:53;;;;;;;8.48;6.03;;;;;;;12.17;62.86;93973.28;5044992;28;20335;-86
2021/04/23 01:05:27;;;;;;;8.52;5.80;;;;;;;12.28;63.35;93990.56;5050299;28;20024;-86
2021/04/23 01:07:53;;;;;;;9.63;5.60;;;;;;;12.12;64.02;93989.25;5050487;28;20036;-86
2021/04/23 01:10:21;;;;;;;8.35;6.20;;;;;;;12.28;64.53;93995.88;5043969;28;20032;-87
2021/04/23 01:12:47;;;;;;;8.65;6.32;;;;;;;12.43;63.18;94008.84;5046935;28;20040;-86
2021/04/23 01:15:13;;;;;;;8.25;6.45;;;;;;;12.31;63.90;93992.66;5047307;28;20205;-86
2021/04/23 01:17:39;;;;;;;7.25;5.88;;;;;;;12.33;64.69;94008.22;5046520;28;20137;-86
2021/04/23 01:20:06;;;;;;;8.85;6.45;;;;;;;12.30;65.76;94003.53;5050136;28;20107;-87
2021/04/23 01:22:33;;;;;;;10.95;7.80;;;;;;;12.20;66.52;94004.50;5051558;28;20033;-87
2021/04/23 01:24:58;;;;;;;10.02;6.47;;;;;;;12.38;67.35;94014.22;5050177;28;20083;-83
2021/04/23 01:27:24;;;;;;;6.93;6.20;;;;;;;12.43;67.85;94018.66;5050897;28;20029;-86
2021/04/23 01:29:49;;;;;;;12.02;7.10;;;;;;;12.28;68.44;93985.25;5050446;28;20028;-85
2021/04/23 01:32:17;;;;;;;7.75;6.35;;;;;;;12.32;68.20;94004.78;5053789;28;20485;-86
2021/04/23 01:34:43;;;;;;;8.55;6.90;;;;;;;12.30;68.82;94009.63;5049307;28;20064;-85
2021/04/23 01:37:09;;;;;;;15.45;7.75;;;;;;;12.19;69.24;94010.88;5050411;28;20126;-84
2021/04/23 01:39:38;;;;;;;10.23;7.43;;;;;;;12.23;70.21;94019.81;5034197;28;20059;-86
2021/04/23 01:42:05;;;;;;;10.07;7.82;;;;;;;12.02;70.69;94021.25;5043267;28;20404;-86
2021/04/23 01:44:31;;;;;;;8.77;7.50;;;;;;;12.01;71.56;94027.63;5050244;28;20393;-86
2021/04/23 01:46:58;;;;;;;8.82;7.93;;;;;;;12.01;71.01;94001.94;5049514;28;20032;-86
2021/04/23 01:49:24;;;;;;;12.75;7.82;;;;;;;12.30;70.95;94030.81;5051466;28;20048;-86
2021/04/23 01:51:56;;;;;;;11.95;8.07;;;;;;;12.11;72.07;94024.81;5051323;28;20349;-85
2021/04/23 01:54:24;;;;;;;18.35;13.95;;;;;;;12.02;71.82;94016.72;5056329;28;20071;-82
2021/04/23 01:56:51;;;;;;;17.23;15.00;;;;;;;12.05;72.09;94026.75;5051566;28;20025;-85
2021/04/23 01:59:18;;;;;;;19.10;15.73;;;;;;;11.94;73.01;94027.22;5054322;28;20397;-86
2021/04/23 02:01:44;;;;;;;17.33;12.65;;;;;;;11.92;73.25;94024.09;5049217;28;20094;-86
2021/04/23 02:04:11;;;;;;;15.57;12.05;;;;;;;11.94;73.41;94035.94;5049041;28;20032;-86
2021/04/23 02:06:38;;;;;;;12.15;10.85;;;;;;;12.06;73.20;94024.91;5055472;28;20064;-85
2021/04/23 02:09:06;;;;;;;13.13;9.25;;;;;;;11.92;72.99;94018.78;5050754;28;20543;-87
2021/04/23 02:11:32;;;;;;;16.35;12.38;;;;;;;12.01;73.02;94027.63;5031155;28;20488;-86
2021/04/23 02:13:58;;;;;;;12.75;10.77;;;;;;;12.10;72.62;94039.13;5030333;28;20048;-86
2021/04/23 02:16:26;;;;;;;13.80;12.27;;;;;;;12.19;72.08;94042.66;5029883;28;20427;-87
2021/04/23 02:18:53;;;;;;;14.40;11.40;;;;;;;12.04;72.89;94037.63;5042125;28;20052;-84
2021/04/23 02:21:18;;;;;;;14.52;11.52;;;;;;;11.97;73.04;94037.25;5049632;28;20062;-86
2021/04/23 02:23:47;;;;;;;20.05;12.25;;;;;;;12.05;73.14;94033.91;5039516;28;20851;-86
2021/04/23 02:26:12;;;;;;;15.25;12.77;;;;;;;12.18;72.79;94037.66;5052525;28;20024;-86
2021/04/23 02:28:38;;;;;;;13.55;11.90;;;;;;;12.08;72.62;94035.97;5050380;28;20401;-86
2021/04/23 02:31:16;;;;;;;11.82;9.93;;;;;;;12.04;73.89;94037.63;5053090;28;20071;-86
2021/04/23 02:33:44;;;;;;;13.45;9.35;;;;;;;11.89;74.86;94030.72;5050695;28;20441;-86
2021/04/23 02:36:10;;;;;;;22.30;10.40;;;;;;;12.07;74.76;94034.41;5051158;28;20040;-87
2021/04/23 02:38:36;;;;;;;12.32;9.30;;;;;;;11.97;75.43;94032.69;5055149;28;20017;-86
2021/04/23 02:41:04;;;;;;;12.48;9.23;;;;;;;11.86;75.88;94036.63;5055956;28;20075;-86
2021/04/23 02:43:39;;;;;;;13.98;9.13;;;;;;;11.92;75.89;94048.72;5048932;28;20048;-86
2021/04/23 02:46:05;;;;;;;12.20;9.55;;;;;;;11.94;75.95;94049.19;5047736;28;20049;-86
2021/04/23 02:48:35;;;;;;;10.80;8.65;;;;;;;11.95;76.10;94048.13;5049328;28;20044;-86
2021/04/23 02:51:05;;;;;;;11.30;9.05;;;;;;;11.88;76.46;94060.13;5050320;28;20044;-86
2021/04/23 02:53:31;;;;;;;9.73;8.73;;;;;;;11.96;75.99;94051.56;5049667;28;20052;-86
2021/04/23 02:55:57;;;;;;;13.98;8.40;;;;;;;11.87;76.52;94046.13;5056423;28;20401;-86
2021/04/23 02:58:23;;;;;;;11.93;8.32;;;;;;;12.07;74.56;94047.66;5056796;28;20578;-87
2021/04/23 03:01:00;;;;;;;10.10;8.05;;;;;;;12.06;74.64;94051.38;5050914;28;20033;-84
2021/04/23 03:03:26;;;;;;;10.18;8.15;;;;;;;12.09;74.55;94058.75;5047853;28;20045;-87
2021/04/23 03:05:57;;;;;;;11.65;8.00;;;;;;;12.11;74.49;94067.19;5048567;28;20044;-85
2021/04/23 03:08:23;;;;;;;9.93;8.13;;;;;;;12.08;74.62;94059.81;5051379;28;20151;-86
2021/04/23 03:10:58;;;;;;;11.30;8.40;;;;;;;11.84;75.90;94064.44;5048871;28;20036;-86
2021/04/23 03:13:25;;;;;;;;;;;;;;;11.97;76.26;94083.03;5038714;28;20401;-86
2021/04/23 03:15:52;;;;;;;16.83;10.05;;;;;;;11.93;75.85;94068.78;5052879;28;19913;-87
2021/04/23 03:18:21;;;;;;;16.50;11.07;;;;;;;11.81;76.33;94065.81;5049613;28;20054;-84
2021/04/23 03:20:48;;;;;;;12.80;11.48;;;;;;;11.75;76.19;94074.91;5045744;28;20468;-87
2021/04/23 03:23:13;;;;;;;15.30;12.35;;;;;;;11.70;76.82;94070.47;5047635;28;20157;-86
2021/04/23 03:25:39;;;;;;;14.15;11.15;;;;;;;11.87;77.00;94093.00;5049619;28;20121;-86
2021/04/23 03:28:05;;;;;;;15.35;11.00;;;;;;;11.97;76.57;94090.22;5047115;28;20116;-86
2021/04/23 03:30:40;;;;;;;15.02;12.90;;;;;;;11.67;77.55;94092.22;5049986;28;20040;-87
2021/04/23 03:33:06;;;;;;;22.45;12.57;;;;;;;11.75;77.55;94096.09;5046393;28;20341;-86
2021/04/23 03:35:32;;;;;;;19.52;12.95;;;;;;;11.68;77.60;94090.34;5049866;28;20024;-86
2021/04/23 03:37:58;;;;;;;16.92;14.35;;;;;;;11.56;78.00;94080.19;5040489;28;20074;-86
2021/04/23 03:40:27;;;;;;;16.27;13.27;;;;;;;11.62;79.15;94089.66;5049889;28;20036;-85
2021/04/23 03:42:53;;;;;;;26.23;16.60;;;;;;;11.66;78.39;94089.84;5034083;28;20257;-86
2021/04/23 03:45:22;;;;;;;17.30;14.73;;;;;;;11.71;78.21;94097.72;5047940;28;20028;-83
2021/04/23 03:47:49;;;;;;;13.77;12.27;;;;;;;11.66;78.24;94101.22;5054340;28;21650;-83
2021/04/23 03:50:17;;;;;;;15.48;11.68;;;;;;;11.59;78.12;94103.44;5050666;28;20048;-83
2021/04/23 03:52:43;;;;;;;16.15;13.13;;;;;;;11.59;78.39;94100.78;5048232;28;20041;-83
2021/04/23 03:55:14;;;;;;;18.52;15.85;;;;;;;11.61;78.73;94111.09;5066330;28;20081;-84
2021/04/23 04:00:41;;;;;;;17.17;14.32;;;;;;;11.71;78.97;94109.09;5048830;28;20519;-85
2021/04/23 04:03:07;;;;;;;19.63;13.90;;;;;;;11.58;79.06;94107.16;5047591;28;20108;-84
2021/04/23 04:05:33;;;;;;;18.40;14.48;;;;;;;11.56;79.08;94109.31;5051764;28;20024;-84
2021/04/23 04:07:59;;;;;;;16.13;14.43;;;;;;;11.57;78.81;94120.69;5047946;28;20524;-84
2021/04/23 04:10:25;;;;;;;24.30;15.25;;;;;;;11.60;79.06;94128.84;5062908;28;20055;-84
2021/04/23 04:12:51;;;;;;;23.00;15.10;;;;;;;11.67;78.86;94129.28;5052332;28;20041;-84
2021/04/23 04:15:18;;;;;;;20.58;16.52;;;;;;;11.55;79.06;94110.38;5047339;28;20043;-84
2021/04/23 04:17:53;;;;;;;22.08;15.73;;;;;;;11.49;79.55;94100.94;5038030;28;20477;-84
2021/04/23 04:20:19;;;;;;;;;;;;;;;11.58;79.83;94128.34;5042506;28;20044;-84
2021/04/23 04:22:44;;;;;;;20.50;15.68;;;;;;;11.43;80.10;94120.63;5045300;28;19954;-85
2021/04/23 04:25:17;;;;;;;19.95;16.33;;;;;;;11.44;80.32;94129.31;5035691;28;20036;-85
2021/04/23 04:27:43;;;;;;;27.45;17.17;;;;;;;11.58;80.59;94130.97;5030060;28;20044;-85
2021/04/23 04:30:09;;;;;;;24.85;16.45;;;;;;;11.65;80.55;94125.34;5020328;28;20510;-84
2021/04/23 04:32:36;;;;;;;28.20;23.73;;;;;;;11.54;80.54;94123.91;5039229;28;20082;-85
2021/04/23 04:35:02;;;;;;;25.58;18.20;;;;;;;11.59;80.26;94134.41;5048844;28;20093;-83
2021/04/23 04:37:27;;;;;;;25.15;17.50;;;;;;;11.68;80.20;94143.28;5064431;28;20626;-86
2021/04/23 04:39:53;;;;;;;22.77;17.55;;;;;;;11.77;79.76;94136.31;5048675;28;20029;-85
2021/04/23 04:42:18;;;;;;;24.75;18.20;;;;;;;11.69;79.90;94135.06;5043745;28;20048;-84
2021/04/23 04:44:44;;;;;;;25.35;18.83;;;;;;;11.70;79.82;94134.00;5027665;28;20308;-83
2021/04/23 04:47:10;;;;;;;25.05;18.95;;;;;;;11.70;80.01;94138.50;5048043;28;20162;-85
2021/04/23 04:49:35;;;;;;;22.77;17.98;;;;;;;11.85;79.48;94129.59;5047324;28;20044;-85
2021/04/23 04:52:00;;;;;;;28.27;20.30;;;;;;;11.86;79.52;94133.81;5047481;28;20040;-86
2021/04/23 04:54:26;;;;;;;24.75;19.27;;;;;;;11.86;79.45;94141.75;5045082;28;20084;-85
2021/04/23 04:56:51;;;;;;;25.25;20.10;;;;;;;11.93;79.91;94158.84;5054904;28;20074;-82
2021/04/23 04:59:17;;;;;;;43.03;27.80;;;;;;;11.90;80.71;94158.63;5048987;28;20067;-85
2021/04/23 05:01:42;;;;;;;39.08;29.70;;;;;;;12.06;81.31;94167.94;5045648;28;20580;-85
2021/04/23 05:04:08;;;;;;;25.90;21.52;;;;;;;12.07;80.91;94154.38;5046991;28;20040;-86
2021/04/23 05:06:33;;;;;;;27.33;21.27;;;;;;;12.25;80.09;94160.75;5047174;28;20371;-86
2021/04/23 05:08:59;;;;;;;25.38;19.55;;;;;;;12.19;80.27;94148.66;5050638;28;20033;-85
2021/04/23 05:11:25;;;;;;;36.40;26.75;;;;;;;12.31;79.61;94164.91;5049480;28;20556;-84
2021/04/23 05:13:53;;;;;;;34.38;26.38;;;;;;;12.32;79.97;94147.91;5048144;28;20094;-85
2021/04/23 05:16:18;;;;;;;27.17;20.10;;;;;;;12.45;79.11;94160.41;5047170;28;20041;-84
2021/04/23 05:18:44;;;;;;;25.38;20.40;;;;;;;12.48;77.82;94170.44;5049375;28;20045;-84
2021/04/23 05:21:09;;;;;;;23.65;19.27;;;;;;;12.47;77.46;94171.50;5043974;28;20033;-85
2021/04/23 05:23:35;;;;;;;26.10;22.02;;;;;;;12.56;78.58;94172.41;5045365;28;20017;-86
2021/04/23 05:26:00;;;;;;;26.65;21.48;;;;;;;12.64;78.20;94172.81;5048274;28;20033;-85
2021/04/23 05:28:26;;;;;;;27.15;22.20;;;;;;;12.59;77.74;94166.53;5053412;28;20972;-85
2021/04/23 05:30:51;;;;;;;31.25;22.83;;;;;;;12.69;77.71;94172.75;5047938;28;21110;-82
2021/04/23 05:33:17;;;;;;;32.70;24.70;;;;;;;12.71;76.87;94174.00;5047532;28;20401;-86
2021/04/23 05:35:43;;;;;;;29.13;22.85;;;;;;;12.74;77.26;94176.09;5046282;28;20497;-85
2021/04/23 05:38:09;;;;;;;37.08;24.38;;;;;;;12.74;77.50;94185.91;5051526;28;20358;-85
2021/04/23 05:40:38;;;;;;;20.75;16.08;;;;;;;12.77;77.56;94183.44;5047457;28;20402;-85
2021/04/23 05:43:07;;;;;;;14.95;11.52;;;;;;;12.84;77.45;94178.56;5051867;28;20079;-86
2021/04/23 05:45:33;;;;;;;19.83;15.18;;;;;;;12.91;77.61;94189.56;5048187;28;20048;-85
2021/04/23 05:47:59;;;;;;;15.93;12.43;;;;;;;12.94;77.28;94188.19;5046662;28;20488;-85
2021/04/23 05:50:26;;;;;;;17.20;10.85;;;;;;;13.03;76.81;94197.84;5047727;28;20024;-85
2021/04/23 05:52:51;;;;;;;13.30;10.50;;;;;;;13.03;76.28;94192.53;5049547;28;20041;-83
2021/04/23 05:55:20;;;;;;;15.50;9.43;;;;;;;13.05;76.17;94192.22;5045837;28;20507;-85
2021/04/23 05:57:46;;;;;;;12.35;9.60;;;;;;;13.08;76.29;94189.00;5036999;28;20033;-85
2021/04/23 06:00:15;;;;;;;10.73;8.77;;;;;;;13.03;75.36;94170.53;5027418;28;20312;-85
2021/04/23 06:02:44;;;;;;;8.77;7.97;;;;;;;13.24;74.95;94190.28;5024162;28;20524;-85
2021/04/23 06:05:10;;;;;;;11.32;9.63;;;;;;;13.18;74.50;94188.84;5026937;28;20033;-85
2021/04/23 06:07:36;;;;;;;15.90;10.02;;;;;;;13.31;74.86;94209.28;5028818;28;20483;-86
2021/04/23 06:10:04;;;;;;;12.25;8.18;;;;;;;13.26;74.28;94188.16;5027709;28;20041;-86
2021/04/23 06:12:30;;;;;;;9.13;8.18;;;;;;;13.26;75.19;94200.63;5029467;28;20033;-85
2021/04/23 06:15:00;;;;;;;11.75;9.50;;;;;;;13.36;74.78;94198.56;5026902;28;20044;-86
2021/04/23 06:17:26;;;;;;;8.82;7.93;;;;;;;13.27;74.79;94197.69;5051174;28;20025;-86
2021/04/23 06:19:52;;;;;;;13.45;8.05;;;;;;;13.22;74.55;94197.78;5045736;28;20043;-87
2021/04/23 06:22:17;;;;;;;11.15;8.82;;;;;;;13.36;74.33;94205.75;5048361;28;20044;-86
2021/04/23 06:24:43;;;;;;;14.98;12.50;;;;;;;13.34;75.74;94206.03;5051271;28;20557;-86
2021/04/23 06:27:09;;;;;;;15.55;10.90;;;;;;;13.41;75.06;94203.78;5049360;28;20047;-87
2021/04/23 06:29:34;;;;;;;14.02;10.32;;;;;;;13.39;74.70;94195.31;5041106;28;20032;-86
2021/04/23 06:32:00;;;;;;;11.82;10.45;;;;;;;13.35;74.87;94193.53;5045687;28;20139;-85
2021/04/23 06:34:26;;;;;;;11.90;9.43;;;;;;;13.49;75.19;94204.94;5049297;28;20060;-86
2021/04/23 06:36:51;;;;;;;13.85;10.45;;;;;;;13.40;74.76;94188.13;5045054;28;20037;-83
2021/04/23 06:39:20;;;;;;;17.27;10.30;;;;;;;13.36;73.23;94177.31;5035928;28;20040;-86
2021/04/23 06:41:46;;;;;;;16.05;10.80;;;;;;;13.51;73.59;94208.09;5043967;28;20085;-82
2021/04/23 06:44:12;;;;;;;15.07;11.57;;;;;;;13.53;73.13;94211.25;5062543;28;20053;-86
2021/04/23 06:46:38;;;;;;;8.98;6.95;;;;;;;13.57;72.98;94206.13;5043782;28;20151;-85
2021/04/23 06:49:06;;;;;;;9.00;7.38;;;;;;;13.57;74.07;94216.75;5031376;28;21935;-87
2021/04/23 06:51:41;;;;;;;13.32;8.75;;;;;;;13.45;74.30;94194.13;5041077;28;20045;-83
2021/04/23 06:54:06;;;;;;;14.02;7.95;;;;;;;13.64;73.12;94214.47;5030964;28;20067;-83
2021/04/23 06:56:33;;;;;;;7.10;5.80;;;;;;;13.66;73.42;94205.13;5042111;28;20120;-82
2021/04/23 06:58:58;;;;;;;17.00;10.32;;;;;;;13.69;73.27;94209.03;5044348;28;21268;-84
2021/04/23 07:01:24;;;;;;;14.63;8.57;;;;;;;13.89;72.50;94208.63;5045755;28;20048;-81
2021/04/23 07:03:49;;;;;;;12.93;8.55;;;;;;;14.03;72.83;94219.22;5043686;28;20047;-82
2021/04/23 07:06:14;;;;;;;9.23;8.25;;;;;;;14.01;71.23;94216.88;5032491;28;20044;-84
2021/04/23 07:08:40;;;;;;;14.38;7.18;;;;;;;14.10;71.09;94212.41;5044966;28;20059;-83
2021/04/23 07:11:06;;;;;;;11.15;7.18;;;;;;;14.22;71.58;94223.28;5043364;28;20024;-83
2021/04/23 07:13:32;;;;;;;10.38;7.68;;;;;;;14.17;70.82;94207.47;5037659;28;20498;-83
2021/04/23 07:15:58;;;;;;;9.80;6.07;;;;;;;14.11;69.79;94210.56;5042092;28;20049;-81
2021/04/23 07:18:23;;;;;;;12.68;8.80;;;;;;;14.02;69.10;94204.38;5043021;28;20440;-82
2021/04/23 07:20:49;;;;;;;13.20;9.00;;;;;;;14.10;70.09;94228.38;5044891;28;20039;-83
2021/04/23 07:23:15;;;;;;;16.80;11.50;;;;;;;14.02;71.21;94207.03;5043756;28;20527;-82
2021/04/23 07:25:41;;;;;;;21.52;14.77;;;;;;;14.01;72.35;94226.72;5042183;28;20048;-83
2021/04/23 07:28:07;;;;;;;20.60;16.35;;;;;;;13.94;74.10;94227.13;5043044;28;20052;-83
2021/04/23 07:30:35;;;;;;;12.40;8.70;;;;;;;14.07;71.09;94236.16;5043369;28;20063;-84
2021/04/23 07:33:01;;;;;;;10.10;7.90;;;;;;;14.08;71.48;94241.16;5044582;28;20124;-82
2021/04/23 07:35:28;;;;;;;10.60;8.27;;;;;;;14.12;71.29;94236.81;5045584;28;20509;-84
2021/04/23 07:37:55;;;;;;;11.82;7.47;;;;;;;14.04;70.59;94226.09;5041960;28;20059;-82
2021/04/23 07:40:21;;;;;;;10.55;7.30;;;;;;;14.04;71.09;94232.22;5041879;28;20554;-83
2021/04/23 07:42:47;;;;;;;11.45;7.75;;;;;;;13.99;73.08;94218.25;5042118;28;20045;-82
2021/04/23 07:45:13;;;;;;;9.18;8.20;;;;;;;14.15;72.78;94246.88;5042426;28;20037;-83
2021/04/23 07:47:39;;;;;;;8.75;5.43;;;;;;;14.13;72.08;94240.25;5033210;28;20500;-82
2021/04/23 07:50:09;;;;;;;11.30;6.88;;;;;;;14.28;72.28;94254.00;5037702;28;20060;-83
2021/04/23 07:52:35;;;;;;;7.20;5.97;;;;;;;14.28;72.22;94253.22;5041202;28;20531;-83
2021/04/23 07:55:02;;;;;;;9.95;7.30;;;;;;;14.27;72.71;94252.44;5043566;28;20127;-83
2021/04/23 07:57:28;;;;;;;9.85;6.60;;;;;;;14.24;71.51;94241.63;5043188;28;20323;-82
2021/04/23 07:59:55;;;;;;;5.70;5.07;;;;;;;14.15;70.44;94230.13;5039328;28;20257;-82
2021/04/23 08:02:20;;;;;;;4.07;3.42;;;;;;;14.13;68.75;94249.03;5046107;28;20020;-83
2021/04/23 08:04:45;;;;;;;3.78;3.33;;;;;;;14.10;68.62;94241.66;5030225;28;20517;-83
2021/04/23 08:07:12;;;;;;;4.95;4.45;;;;;;;13.96;68.93;94251.53;5044064;28;20041;-83
2021/04/23 08:09:39;;;;;;;4.53;4.13;;;;;;;13.78;69.91;94245.25;5044567;28;21178;-83
2021/04/23 08:12:06;;;;;;;10.07;4.40;;;;;;;13.94;69.73;94259.00;5041701;28;20051;-83
2021/04/23 08:14:31;;;;;;;5.30;4.80;;;;;;;13.86;70.69;94243.78;5040107;28;20139;-84
2021/04/23 08:16:57;;;;;;;5.68;3.88;;;;;;;13.97;70.07;94244.34;5044059;28;20397;-82
2021/04/23 08:19:22;;;;;;;6.72;5.30;;;;;;;14.07;69.43;94242.25;5040444;28;20679;-83
2021/04/23 08:21:48;;;;;;;5.22;4.72;;;;;;;14.18;69.97;94256.88;5042257;28;20153;-83
2021/04/23 08:24:14;;;;;;;3.70;2.92;;;;;;;14.18;69.01;94238.28;5040505;28;20558;-83
2021/04/23 08:26:43;;;;;;;3.35;3.00;;;;;;;14.43;67.96;94250.25;5042243;28;20481;-83
2021/04/23 08:29:11;;;;;;;4.78;3.40;;;;;;;14.53;67.98;94251.88;5043822;28;20576;-82
2021/04/23 08:31:38;;;;;;;4.60;3.38;;;;;;;14.53;67.82;94244.69;5042876;28;20028;-84
2021/04/23 08:34:06;;;;;;;5.20;3.65;;;;;;;14.70;65.62;94236.06;5040035;28;20123;-83
2021/04/23 08:36:32;;;;;;;3.13;2.38;;;;;;;15.00;63.90;94248.59;5040843;28;20036;-83
2021/04/23 08:38:59;;;;;;;4.03;2.83;;;;;;;15.24;65.65;94239.50;5042007;28;21014;-83
2021/04/23 08:41:24;;;;;;;4.70;3.08;;;;;;;15.51;65.37;94236.66;5041708;28;20036;-83
2021/04/23 08:43:52;;;;;;;4.15;3.47;;;;;;;15.70;65.19;94234.53;5042171;28;20095;-87
2021/04/23 08:46:18;;;;;;;4.25;3.85;;;;;;;15.71;62.56;94214.78;5045370;28;20044;-84
2021/04/23 08:48:44;;;;;;;5.05;4.00;;;;;;;16.03;61.37;94214.34;5043631;28;20053;-85
2021/04/23 08:51:14;;;;;;;5.03;2.58;;;;;;;16.07;59.50;94211.88;5054745;28;20079;-85
2021/04/23 08:53:40;;;;;;;3.63;3.33;;;;;;;16.15;60.84;94224.41;5039009;28;20425;-86
2021/04/23 08:56:06;;;;;;;3.13;2.38;;;;;;;16.31;58.75;94238.09;5044172;28;20109;-82
2021/04/23 08:58:32;;;;;;;5.00;4.38;;;;;;;16.11;62.63;94228.03;5045092;28;20493;-82
2021/04/23 09:00:57;;;;;;;3.47;3.13;;;;;;;15.93;61.33;94217.31;5043454;28;20083;-82
2021/04/23 09:03:24;;;;;;;4.68;2.78;;;;;;;15.88;61.21;94230.03;5044029;28;20893;-82
2021/04/23 09:06:12;;;;;;;4.05;3.67;;;;;;;15.81;61.95;94243.81;5044162;28;20397;-82
2021/04/23 09:08:59;;;;;;;4.43;4.03;;;;;;;15.84;63.98;94245.84;5040307;28;20031;-83
2021/04/23 09:11:30;;;;;;;4.75;3.70;;;;;;;15.84;62.75;94239.72;5044623;28;20032;-82
2021/04/23 09:14:19;;;;;;;3.30;3.00;;;;;;;15.85;61.85;94251.97;5041592;28;20033;-82
2021/04/23 09:16:45;;;;;;;6.55;3.88;;;;;;;15.69;60.81;94256.13;5022544;28;20140;-82
2021/04/23 09:19:14;;;;;;;4.38;2.90;;;;;;;15.52;60.51;94255.00;5038253;28;20040;-82
2021/04/23 09:21:50;;;;;;;4.85;3.10;;;;;;;15.36;61.77;94261.78;5034760;28;20585;-81
2021/04/23 09:24:27;;;;;;;4.43;3.83;;;;;;;15.15;63.97;94261.53;5039357;28;20043;-81
2021/04/23 09:26:54;;;;;;;3.35;3.05;;;;;;;14.93;63.27;94255.44;5043441;28;20461;-81
2021/04/23 09:29:32;;;;;;;2.45;2.20;;;;;;;14.76;61.48;94268.66;5044756;28;20115;-83
2021/04/23 09:32:09;;;;;;;2.67;2.28;;;;;;;14.62;62.92;94252.72;5033090;28;20059;-82
2021/04/23 09:34:34;;;;;;;4.05;2.30;;;;;;;14.65;64.30;94260.13;5040295;28;20040;-82
2021/04/23 09:37:00;;;;;;;3.55;3.25;;;;;;;14.68;64.96;94257.63;5043892;28;20043;-82
2021/04/23 09:39:26;;;;;;;5.60;3.67;;;;;;;14.74;63.82;94263.63;5044619;28;20045;-82
2021/04/23 09:42:04;;;;;;;5.38;4.85;;;;;;;14.66;63.91;94253.72;5047232;28;20040;-81
2021/04/23 09:44:31;;;;;;;7.20;5.40;;;;;;;14.65;66.09;94257.47;5047975;28;20025;-82
2021/04/23 09:46:57;;;;;;;6.20;3.30;;;;;;;14.60;62.48;94244.28;5049673;28;20050;-82
2021/04/23 09:49:23;;;;;;;4.28;3.42;;;;;;;14.57;63.36;94261.63;5046874;28;20126;-82
2021/04/23 09:51:49;;;;;;;5.97;3.95;;;;;;;14.66;63.17;94259.81;5031650;28;20040;-82
2021/04/23 09:54:16;;;;;;;4.88;3.35;;;;;;;14.68;63.68;94256.84;5034800;28;20088;-82
2021/04/23 09:56:44;;;;;;;5.05;3.75;;;;;;;14.71;63.77;94262.34;5051031;28;20020;-82
2021/04/23 09:59:55;;;;;;;4.30;3.30;;;;;;;14.62;65.78;94263.38;5052490;28;20033;-80
2021/04/23 10:02:23;;;;;;;4.35;3.88;;;;;;;14.60;64.60;94260.25;5061114;28;20064;-81
2021/04/23 10:04:49;;;;;;;5.88;3.55;;;;;;;14.56;66.43;94249.41;5052502;28;20393;-82
2021/04/23 10:07:21;;;;;;;4.18;3.40;;;;;;;14.86;63.77;94258.53;5051188;28;20071;-82
2021/04/23 10:09:47;;;;;;;3.30;3.00;;;;;;;14.76;62.86;94253.44;5054208;28;20596;-83
2021/04/23 10:12:31;;;;;;;6.20;4.63;;;;;;;14.68;64.68;94256.84;5051055;28;20109;-83
2021/04/23 10:15:13;;;;;;;6.53;5.40;;;;;;;14.57;63.30;94255.50;5053305;28;20053;-84
2021/04/23 10:17:41;;;;;;;6.72;4.13;;;;;;;14.64;64.40;94256.69;5049946;28;20086;-83
2021/04/23 10:20:10;;;;;;;8.00;5.60;;;;;;;14.69;64.40;94253.91;5055310;28;20059;-83
2021/04/23 10:22:35;;;;;;;6.70;3.95;;;;;;;14.62;62.04;94250.84;5050598;28;20034;-84
2021/04/23 10:25:01;;;;;;;6.15;3.33;;;;;;;14.66;61.68;94251.06;5063744;28;20495;-83
2021/04/23 10:27:27;;;;;;;7.22;4.15;;;;;;;14.73;62.34;94248.75;5046618;28;20128;-82
2021/04/23 10:29:53;;;;;;;8.95;4.90;;;;;;;14.96;62.39;94255.63;5049151;28;20388;-83
2021/04/23 10:32:20;;;;;;;7.95;5.95;;;;;;;15.04;64.00;94264.75;5051163;28;20527;-83
2021/04/23 10:34:46;;;;;;;8.52;4.78;;;;;;;15.11;62.38;94271.22;5044685;28;20052;-84
2021/04/23 10:37:13;;;;;;;5.63;4.38;;;;;;;15.16;61.32;94260.44;5049692;28;20131;-82
2021/04/23 10:39:42;;;;;;;5.35;4.85;;;;;;;15.13;58.76;94262.94;5047586;28;20419;-82
2021/04/23 10:42:42;;;;;;;4.85;4.35;;;;;;;15.30;58.04;94257.69;5035209;28;20060;-83
2021/04/23 10:45:26;;;;;;;5.15;4.70;;;;;;;15.55;57.93;94242.94;5042693;28;20049;-83
2021/04/23 10:47:55;;;;;;;7.70;4.78;;;;;;;15.54;57.57;94242.13;5050285;28;20064;-81
2021/04/23 10:50:26;;;;;;;6.22;5.60;;;;;;;15.77;58.41;94250.84;5049395;28;20224;-83
2021/04/23 10:53:10;;;;;;;4.78;4.25;;;;;;;15.80;57.69;94250.22;5027335;28;20040;-81
2021/04/23 10:55:40;;;;;;;7.93;4.22;;;;;;;15.76;57.03;94243.94;5044942;28;20037;-83
2021/04/23 10:58:06;;;;;;;7.05;4.15;;;;;;;15.95;56.94;94247.13;5037338;28;20029;-84
2021/04/23 11:00:34;;;;;;;6.40;4.57;;;;;;;16.16;57.23;94259.88;5036787;28;20040;-84
2021/04/23 11:03:26;;;;;;;5.60;4.97;;;;;;;16.35;55.98;94250.47;5047817;28;20041;-85
2021/04/23 11:05:56;;;;;;;8.52;4.55;;;;;;;16.29;54.49;94240.28;5050720;28;20036;-81
2021/04/23 11:08:23;;;;;;;3.00;2.70;;;;;;;16.13;53.53;94236.47;5050711;28;20055;-84
2021/04/23 11:11:01;;;;;;;4.13;2.78;;;;;;;16.26;53.53;94248.91;5048813;28;20052;-84
2021/04/23 11:13:36;;;;;;;2.95;2.63;;;;;;;15.79;54.46;94238.00;5045630;28;20756;-83
2021/04/23 11:16:20;;;;;;;;;;;;;;;15.89;54.87;94253.69;5049725;28;20036;-84
2021/04/23 11:18:51;;;;;;;3.13;2.80;;;;;;;15.67;56.04;94240.47;5047410;28;19924;-84
2021/04/23 11:21:32;;;;;;;2.90;2.63;;;;;;;15.81;56.12;94235.03;5048949;28;20131;-83
2021/04/23 11:24:18;;;;;;;3.72;3.35;;;;;;;15.99;55.84;94225.97;5050130;28;20102;-83
2021/04/23 11:26:55;;;;;;;3.45;3.15;;;;;;;16.29;55.35;94234.94;5048094;28;20024;-84
2021/04/23 11:29:21;;;;;;;3.58;3.28;;;;;;;16.57;55.87;94235.41;5048091;28;20032;-83
2021/04/23 11:32:25;;;;;;;2.55;2.22;;;;;;;16.95;52.83;94233.69;5046718;28;20041;-83
2021/04/23 11:34:52;;;;;;;2.78;2.13;;;;;;;17.13;52.17;94213.06;5047325;28;20032;-84